HDE weather

Brewster Field
Holdrege, Nebraska, United States

Public forecast

Using degrees Fahrenheit for public forecast. Weather courtesy of forecast.io.

Current aviation weather report (METAR) for Brewster Field

Retrieved 2020/07/05 00:35 UTC (11 minutes ago):

KHDE 050035Z AUTO 11007KT 10SM CLR 29/19 A2998 RMK AO2 T02920189

Closest aviation forecast (TAF) to Brewster Field

Closest forecast is Kearney Regional Airport, 22.3 nm (41.3 km) NE. Retrieved 2020-07-05 00:33 UTC (13 minutes ago):

TAF KEAR 042330Z 0500/0524 11007KT P6SM SKC FM050400 VRB05KT P6SM FEW250 FM051600 16007KT P6SM SCT120 BKN250